Time;durP1;ratioP1;P1;durP2;ratioP2;P2;SDS_P1;SDS_P2;PMS_P1;PMS_P2;Temp;Humidity;BMP_temperature;BMP_pressure;BME280_temperature;BME280_humidity;BME280_pressure;Samples;Min_cycle;Max_cycle;Signal;HPM_P1;HPM_P2
2022/03/15 00:00:49;;;;;;;18.55;8.75;;;;;;;9.65;54.82;101184.94;5006256;28;20046;-85
2022/03/15 00:03:16;;;;;;;21.02;10.07;;;;;;;9.63;54.58;101178.88;4980779;28;20037;-85
2022/03/15 00:05:42;;;;;;;15.75;8.27;;;;;;;9.61;54.67;101172.81;4980657;28;20047;-85
2022/03/15 00:08:09;;;;;;;16.48;9.02;;;;;;;9.58;54.60;101181.81;4951813;28;20056;-85
2022/03/15 00:10:36;;;;;;;16.42;8.70;;;;;;;9.54;54.56;101183.81;5008053;28;20494;-85
2022/03/15 00:13:06;;;;;;;19.77;9.07;;;;;;;9.54;54.53;101178.50;4964611;28;20068;-85
2022/03/15 00:15:35;;;;;;;19.02;9.40;;;;;;;9.54;55.01;101177.63;4977115;28;20061;-85
2022/03/15 00:18:03;;;;;;;18.05;10.38;;;;;;;9.54;54.75;101177.63;4989532;28;20045;-85
2022/03/15 00:20:30;;;;;;;17.55;9.15;;;;;;;9.53;54.96;101184.75;4992911;28;20112;-85
2022/03/15 00:22:58;;;;;;;17.65;9.23;;;;;;;9.53;55.04;101186.53;5013504;28;20076;-85
2022/03/15 00:25:25;;;;;;;15.45;9.50;;;;;;;9.53;54.85;101178.59;5010255;28;20133;-85
2022/03/15 00:27:52;;;;;;;16.17;9.45;;;;;;;9.52;55.26;101183.06;5001935;28;20058;-85
2022/03/15 00:30:22;;;;;;;20.15;9.63;;;;;;;9.50;55.01;101181.44;5051514;28;20045;-85
2022/03/15 00:32:51;;;;;;;17.50;9.70;;;;;;;9.51;54.90;101185.78;5011329;28;20046;-85
2022/03/15 00:35:23;;;;;;;18.75;9.93;;;;;;;9.49;55.13;101179.72;5003801;28;20052;-84
2022/03/15 00:37:52;;;;;;;20.90;9.65;;;;;;;9.48;55.06;101178.03;4997622;28;20049;-85
2022/03/15 00:40:20;;;;;;;16.77;9.57;;;;;;;9.47;55.16;101169.22;4988498;28;20136;-85
2022/03/15 00:42:50;;;;;;;20.48;9.50;;;;;;;9.46;55.28;101174.63;4989574;28;20109;-85
2022/03/15 00:45:23;;;;;;;18.58;9.65;;;;;;;9.43;55.28;101167.69;4979656;28;20045;-85
2022/03/15 00:47:51;;;;;;;16.17;7.80;;;;;;;9.43;55.25;101161.56;4990316;28;20056;-85
2022/03/15 00:50:20;;;;;;;16.58;8.30;;;;;;;9.43;55.53;101164.22;4974404;28;20060;-85
2022/03/15 00:52:48;;;;;;;15.50;8.35;;;;;;;9.41;55.15;101158.13;5014773;28;20061;-85
2022/03/15 00:55:15;;;;;;;17.25;9.10;;;;;;;9.39;55.12;101154.72;4991247;28;20045;-85
2022/03/15 00:57:43;;;;;;;15.00;8.55;;;;;;;9.37;55.26;101146.03;5010180;28;20069;-85
2022/03/15 01:00:12;;;;;;;16.90;8.45;;;;;;;9.34;55.42;101144.44;5002332;28;20053;-85
2022/03/15 01:02:39;;;;;;;13.57;7.20;;;;;;;9.34;55.61;101147.09;4996557;28;20049;-85
2022/03/15 01:05:08;;;;;;;14.30;7.40;;;;;;;9.33;55.49;101153.31;5002879;28;20405;-85
2022/03/15 01:07:38;;;;;;;13.93;8.10;;;;;;;9.30;55.38;101142.91;5008954;28;20499;-85
2022/03/15 01:10:07;;;;;;;18.08;9.25;;;;;;;9.31;55.45;101153.44;4977806;28;20052;-86
2022/03/15 01:12:33;;;;;;;19.38;9.88;;;;;;;9.26;55.56;101149.34;4963802;28;20045;-85
2022/03/15 01:15:04;;;;;;;14.80;8.90;;;;;;;9.23;55.57;101134.47;4994084;28;20498;-85
2022/03/15 01:17:31;;;;;;;16.27;8.93;;;;;;;9.21;55.49;101143.47;4988715;28;20057;-85
2022/03/15 01:19:57;;;;;;;19.65;8.32;;;;;;;9.20;55.63;101144.44;4962048;28;20129;-85
2022/03/15 01:22:24;;;;;;;18.23;8.77;;;;;;;9.18;55.52;101141.84;4980192;28;20410;-85
2022/03/15 01:24:53;;;;;;;16.13;8.80;;;;;;;9.17;55.66;101148.13;4983922;28;20042;-85
2022/03/15 01:27:20;;;;;;;16.05;8.25;;;;;;;9.16;55.55;101133.19;4966227;28;20053;-85
2022/03/15 01:29:47;;;;;;;18.02;8.52;;;;;;;9.13;55.57;101133.34;4992487;28;20128;-85
2022/03/15 01:32:16;;;;;;;14.07;7.85;;;;;;;9.12;55.69;101137.81;4987576;28;20042;-85
2022/03/15 01:34:46;;;;;;;16.85;9.40;;;;;;;9.12;55.65;101129.84;4995373;28;20111;-85
2022/03/15 01:37:13;;;;;;;19.17;8.82;;;;;;;9.11;55.67;101125.50;4987510;28;20038;-85
2022/03/15 01:39:40;;;;;;;18.10;8.30;;;;;;;9.10;55.90;101120.28;5000783;28;20049;-85
2022/03/15 01:42:07;;;;;;;17.02;8.38;;;;;;;9.11;55.92;101119.38;4990643;28;20522;-85
2022/03/15 01:44:34;;;;;;;18.45;8.50;;;;;;;9.09;55.71;101116.78;4989267;28;20052;-85
2022/03/15 01:47:03;;;;;;;14.60;8.38;;;;;;;9.08;56.00;101114.22;4983444;28;20050;-85
2022/03/15 01:49:30;;;;;;;16.45;8.25;;;;;;;9.06;55.89;101108.19;4980037;28;20511;-85
2022/03/15 01:51:57;;;;;;;13.95;7.30;;;;;;;9.05;56.09;101114.41;5017522;28;20042;-85
2022/03/15 01:54:24;;;;;;;15.18;7.30;;;;;;;9.04;55.99;101118.03;4987209;28;20044;-85
2022/03/15 01:56:51;;;;;;;14.63;7.03;;;;;;;9.03;56.07;101119.84;4972710;28;20606;-85
2022/03/15 01:59:18;;;;;;;15.40;7.78;;;;;;;9.01;55.92;101116.41;5000031;28;20131;-85
2022/03/15 02:01:46;;;;;;;14.13;8.13;;;;;;;8.98;56.29;101119.25;5003308;28;20049;-85
2022/03/15 02:04:15;;;;;;;17.17;8.82;;;;;;;8.96;56.07;101109.72;5026196;28;20050;-85
2022/03/15 02:06:42;;;;;;;21.20;9.25;;;;;;;8.95;56.24;101108.84;4978692;28;20053;-85
2022/03/15 02:09:14;;;;;;;21.35;8.60;;;;;;;8.95;56.19;101115.94;4992790;28;20563;-85
2022/03/15 02:11:43;;;;;;;21.15;8.65;;;;;;;8.93;56.39;101102.81;5018096;28;20059;-85
2022/03/15 02:14:10;;;;;;;17.05;9.32;;;;;;;8.94;56.34;101099.19;4994880;28;20053;-85
2022/03/15 02:16:37;;;;;;;16.40;8.75;;;;;;;8.94;56.72;101114.25;5002911;28;20052;-85
2022/03/15 02:19:04;;;;;;;17.13;9.55;;;;;;;8.93;56.27;101109.88;5004972;28;20052;-85
2022/03/15 02:21:31;;;;;;;17.67;8.70;;;;;;;8.90;56.44;101098.53;4986134;28;20049;-86
2022/03/15 02:23:58;;;;;;;16.02;8.07;;;;;;;8.89;56.30;101098.63;4993090;28;20369;-85
2022/03/15 02:26:25;;;;;;;18.05;7.97;;;;;;;8.86;56.76;101097.00;4975229;28;20096;-85
2022/03/15 02:28:52;;;;;;;19.23;8.85;;;;;;;8.87;56.59;101092.56;5005716;28;20046;-86
2022/03/15 02:31:19;;;;;;;18.42;8.35;;;;;;;8.86;56.57;101094.38;4973421;28;20048;-85
2022/03/15 02:33:48;;;;;;;18.77;8.75;;;;;;;8.85;56.70;101097.97;4998706;28;20042;-85
2022/03/15 02:36:16;;;;;;;17.40;8.52;;;;;;;8.85;56.92;101084.72;4974477;28;20148;-85
2022/03/15 02:38:44;;;;;;;17.00;8.60;;;;;;;8.84;56.86;101077.72;4976578;28;20403;-85
2022/03/15 02:41:11;;;;;;;18.88;8.02;;;;;;;8.85;56.74;101084.72;4986031;28;20046;-85
2022/03/15 02:43:39;;;;;;;14.55;7.63;;;;;;;8.84;57.06;101083.00;4965957;28;20065;-85
2022/03/15 02:46:06;;;;;;;13.07;7.25;;;;;;;8.82;56.86;101073.44;4988787;28;20057;-85
2022/03/15 02:48:34;;;;;;;16.02;7.63;;;;;;;8.81;57.23;101075.25;4981994;28;20068;-85
2022/03/15 02:51:08;;;;;;;15.82;7.72;;;;;;;8.80;57.33;101075.34;4998337;28;20101;-85
2022/03/15 02:53:37;;;;;;;17.48;7.28;;;;;;;8.80;57.16;101076.22;5015147;28;20404;-85
2022/03/15 02:56:10;;;;;;;18.48;8.13;;;;;;;8.77;57.40;101075.53;4992442;28;20048;-85
2022/03/15 02:58:40;;;;;;;16.70;8.27;;;;;;;8.74;57.58;101083.66;4993989;28;20120;-85
2022/03/15 03:01:08;;;;;;;15.10;8.40;;;;;;;8.76;57.51;101077.34;4968133;28;20405;-85
2022/03/15 03:03:37;;;;;;;19.80;7.55;;;;;;;8.76;57.46;101064.09;4995736;28;20041;-85
2022/03/15 03:06:04;;;;;;;16.13;7.70;;;;;;;8.75;57.10;101061.53;4979605;28;20041;-85
2022/03/15 03:08:32;;;;;;;16.98;8.15;;;;;;;8.72;57.30;101069.66;4993412;28;20045;-85
2022/03/15 03:11:01;;;;;;;16.67;8.23;;;;;;;8.71;57.68;101082.06;4972572;28;20042;-86
2022/03/15 03:13:30;;;;;;;14.45;8.10;;;;;;;8.68;57.52;101061.91;4957564;28;20121;-85
2022/03/15 03:15:59;;;;;;;13.40;7.90;;;;;;;8.67;57.56;101070.78;4946476;28;20056;-85
2022/03/15 03:18:32;;;;;;;12.90;7.53;;;;;;;8.67;57.42;101062.00;4996500;28;20084;-85
2022/03/15 03:21:03;;;;;;;;;;;;;;;8.45;58.35;101065.94;4982935;28;20045;-85
2022/03/15 03:23:34;;;;;;;13.20;5.60;;;;;;;8.61;57.79;101059.72;4983519;28;19928;-85
2022/03/15 03:26:02;;;;;;;14.75;6.32;;;;;;;8.62;57.60;101048.19;4979033;28;20046;-85
2022/03/15 03:28:36;;;;;;;12.77;6.50;;;;;;;8.63;57.78;101057.84;4975172;28;20527;-85
2022/03/15 03:31:09;;;;;;;11.70;6.05;;;;;;;8.59;58.09;101045.72;4956279;28;20528;-85
2022/03/15 03:33:37;;;;;;;16.98;6.03;;;;;;;8.61;57.84;101043.84;4981266;28;20049;-85
2022/03/15 03:36:05;;;;;;;15.18;6.97;;;;;;;8.61;57.70;101049.13;4988963;28;20042;-85
2022/03/15 03:38:32;;;;;;;14.38;6.40;;;;;;;8.58;58.01;101044.88;4982674;28;20433;-85
2022/03/15 03:40:58;;;;;;;17.20;5.88;;;;;;;8.59;57.92;101046.56;4974157;28;20065;-85
2022/03/15 03:43:26;;;;;;;14.00;6.18;;;;;;;8.58;58.00;101030.81;4975333;28;20129;-85
2022/03/15 03:45:52;;;;;;;15.48;7.18;;;;;;;8.55;57.83;101023.03;4996660;28;20049;-85
2022/03/15 03:48:19;;;;;;;17.67;8.50;;;;;;;8.52;58.11;101033.81;5028884;28;20060;-85
2022/03/15 03:50:46;;;;;;;11.38;7.07;;;;;;;8.51;58.34;101035.59;5012871;28;20508;-85
2022/03/15 03:53:13;;;;;;;14.90;9.05;;;;;;;8.51;58.52;101026.81;4979412;28;20520;-85
2022/03/15 03:55:40;;;;;;;20.15;9.23;;;;;;;8.48;58.53;101027.84;4978704;28;20047;-85
2022/03/15 03:58:07;;;;;;;19.85;9.77;;;;;;;8.46;58.48;101027.09;4981747;28;20493;-86
2022/03/15 04:00:35;;;;;;;21.20;10.32;;;;;;;8.45;58.56;101025.41;4963715;28;20056;-85
2022/03/15 04:03:02;;;;;;;19.83;9.90;;;;;;;8.43;58.59;101033.41;4969645;28;20096;-85
2022/03/15 04:05:30;;;;;;;21.08;10.80;;;;;;;8.42;58.80;101026.44;4985049;28;20645;-85
2022/03/15 04:07:59;;;;;;;21.60;10.45;;;;;;;8.40;58.92;101028.31;4959314;28;20049;-85
2022/03/15 04:10:32;;;;;;;20.17;9.35;;;;;;;8.39;59.18;101033.66;4986550;28;20104;-85
2022/03/15 04:13:01;;;;;;;23.05;10.35;;;;;;;8.39;59.17;101025.72;4969975;28;20057;-85
2022/03/15 04:15:27;;;;;;;21.35;10.05;;;;;;;8.39;59.12;101031.00;4986293;28;20053;-85
2022/03/15 04:17:54;;;;;;;21.88;9.90;;;;;;;8.36;59.06;101029.41;4989574;28;20041;-85
2022/03/15 04:20:21;;;;;;;18.92;8.07;;;;;;;8.35;59.20;101030.34;4989409;28;20050;-85
2022/03/15 04:22:48;;;;;;;18.58;9.25;;;;;;;8.36;59.30;101034.69;5001478;28;20125;-85
2022/03/15 04:25:14;;;;;;;26.35;8.63;;;;;;;8.34;59.22;101033.94;4971902;28;20401;-85
2022/03/15 04:27:41;;;;;;;14.95;8.18;;;;;;;8.36;59.43;101037.34;4987449;28;20579;-85
2022/03/15 04:30:08;;;;;;;17.00;7.95;;;;;;;8.37;59.43;101031.13;4990665;28;20046;-85
2022/03/15 04:32:35;;;;;;;14.98;7.50;;;;;;;8.37;59.48;101024.97;4975503;28;20046;-85
2022/03/15 04:35:03;;;;;;;17.23;8.13;;;;;;;8.37;59.20;101024.97;4970438;28;20077;-85
2022/03/15 04:37:30;;;;;;;13.63;7.10;;;;;;;8.36;59.21;101024.09;4986414;28;20137;-85
2022/03/15 04:39:57;;;;;;;15.32;7.43;;;;;;;8.36;59.46;101013.53;4992593;28;20112;-85
2022/03/15 04:42:25;;;;;;;13.77;7.47;;;;;;;8.36;59.38;101012.69;4960867;28;20053;-85
2022/03/15 04:44:52;;;;;;;12.57;7.13;;;;;;;8.34;59.40;101014.56;4988490;28;20046;-84
2022/03/15 04:47:19;;;;;;;11.05;6.38;;;;;;;8.33;59.45;101010.22;4997014;28;20045;-85
2022/03/15 04:49:46;;;;;;;17.55;7.38;;;;;;;8.31;59.46;101009.47;4979359;28;20153;-85
2022/03/15 04:52:13;;;;;;;13.80;7.65;;;;;;;8.32;59.39;101008.50;4970417;28;20057;-85
2022/03/15 04:54:40;;;;;;;16.42;7.40;;;;;;;8.30;59.48;101005.13;4972759;28;20042;-85
2022/03/15 04:57:07;;;;;;;14.60;6.63;;;;;;;8.29;59.39;101003.41;4948716;28;20134;-85
2022/03/15 04:59:33;;;;;;;15.30;6.97;;;;;;;8.27;59.51;101006.16;4974375;28;20046;-85
2022/03/15 05:02:00;;;;;;;12.27;5.80;;;;;;;8.28;59.67;101007.84;4986073;28;20068;-85
2022/03/15 05:04:27;;;;;;;12.98;6.93;;;;;;;8.26;60.00;101000.00;4992400;28;20103;-85
2022/03/15 05:06:54;;;;;;;14.77;6.05;;;;;;;8.25;59.80;101002.75;4974349;28;20401;-85
2022/03/15 05:09:21;;;;;;;12.50;6.35;;;;;;;8.25;59.93;101002.75;4975902;28;20072;-80
2022/03/15 05:11:48;;;;;;;17.38;7.68;;;;;;;8.23;59.98;101001.97;4993576;28;20049;-81
2022/03/15 05:14:15;;;;;;;15.15;6.57;;;;;;;8.25;60.00;101016.81;4991559;28;20049;-80
2022/03/15 05:16:42;;;;;;;21.98;8.65;;;;;;;8.23;59.72;101010.75;4979916;28;20905;-80
2022/03/15 05:19:10;;;;;;;10.40;5.85;;;;;;;8.21;60.00;100998.56;4992131;28;20046;-79
2022/03/15 05:21:37;;;;;;;12.07;6.15;;;;;;;8.20;60.08;100999.53;5012811;28;20057;-80
2022/03/15 05:24:05;;;;;;;13.93;7.20;;;;;;;8.18;59.93;100990.81;4967327;28;20643;-80
2022/03/15 05:26:33;;;;;;;12.77;7.15;;;;;;;8.18;60.27;100993.47;4999805;28;20460;-80
2022/03/15 05:29:00;;;;;;;15.15;7.30;;;;;;;8.18;60.25;100990.81;4981040;28;20189;-79
2022/03/15 05:31:29;;;;;;;14.38;6.78;;;;;;;8.17;59.92;100981.19;5007659;28;20120;-80
2022/03/15 05:33:58;;;;;;;11.90;6.68;;;;;;;8.15;60.40;100993.66;4982491;28;20042;-80
2022/03/15 05:36:25;;;;;;;16.25;7.15;;;;;;;8.15;60.33;100993.66;4991999;28;20044;-80
2022/03/15 05:38:52;;;;;;;13.65;7.28;;;;;;;8.14;60.32;100999.88;5000964;28;20059;-80
2022/03/15 05:41:18;;;;;;;17.20;6.90;;;;;;;8.14;60.26;101002.53;4988768;28;20045;-79
2022/03/15 05:43:55;;;;;;;13.05;6.57;;;;;;;8.13;60.21;101003.47;4970929;28;20042;-79
2022/03/15 05:46:23;;;;;;;11.48;6.72;;;;;;;8.12;60.26;100999.97;4963210;28;20054;-80
2022/03/15 05:48:50;;;;;;;12.63;6.72;;;;;;;8.11;60.38;101000.06;4987436;28;21317;-80
2022/03/15 05:51:18;;;;;;;12.55;7.22;;;;;;;8.08;60.50;100990.50;4993961;28;20042;-80
2022/03/15 05:53:46;;;;;;;15.75;8.23;;;;;;;8.07;60.51;100994.13;4980738;28;20394;-78
2022/03/15 05:56:13;;;;;;;14.23;6.85;;;;;;;8.05;60.40;100991.53;4995185;28;20120;-80
2022/03/15 05:58:44;;;;;;;13.35;6.30;;;;;;;8.05;60.54;100990.72;4975696;28;20045;-79
2022/03/15 06:01:12;;;;;;;12.48;6.22;;;;;;;8.03;60.41;100985.50;5007998;28;20489;-79
2022/03/15 06:03:39;;;;;;;15.52;6.35;;;;;;;8.03;60.56;100989.94;5011177;28;20508;-79
2022/03/15 06:06:06;;;;;;;12.38;6.47;;;;;;;8.01;60.48;100984.75;5010098;28;20057;-80
2022/03/15 06:08:34;;;;;;;30.13;7.93;;;;;;;8.01;60.67;100989.16;4997754;28;20053;-79
2022/03/15 06:11:02;;;;;;;23.40;8.55;;;;;;;7.98;60.76;100992.84;5052651;28;20064;-80
2022/03/15 06:13:29;;;;;;;18.38;8.00;;;;;;;7.96;61.10;100984.19;5024495;28;20049;-80
2022/03/15 06:15:56;;;;;;;52.65;9.50;;;;;;;7.96;61.01;100983.31;5002374;28;20044;-79
2022/03/15 06:18:22;;;;;;;20.85;7.97;;;;;;;7.95;61.22;100978.97;5017987;28;20052;-78
2022/03/15 06:20:49;;;;;;;16.27;8.88;;;;;;;7.94;61.23;100975.47;4980673;28;20046;-80
2022/03/15 06:23:17;;;;;;;19.88;8.98;;;;;;;7.95;61.41;100981.63;4975768;28;20073;-80
2022/03/15 06:25:44;;;;;;;20.42;8.77;;;;;;;7.97;61.38;100980.56;4983286;28;20045;-79
2022/03/15 06:28:11;;;;;;;16.70;7.78;;;;;;;7.98;61.29;100973.50;5021180;28;20051;-78
2022/03/15 06:30:38;;;;;;;12.07;6.53;;;;;;;7.98;61.43;100976.97;5041139;28;20037;-78
2022/03/15 06:33:06;;;;;;;12.65;6.68;;;;;;;7.97;61.81;100971.81;5004122;28;20098;-77
2022/03/15 06:35:33;;;;;;;20.45;6.78;;;;;;;7.98;61.65;100974.34;5019547;28;20049;-78
2022/03/15 06:38:01;;;;;;;13.02;7.28;;;;;;;7.99;61.63;100964.63;5032553;28;20060;-81
2022/03/15 06:40:29;;;;;;;20.58;7.85;;;;;;;8.01;61.65;100966.25;5007829;28;20588;-78
2022/03/15 06:42:56;;;;;;;18.85;9.75;;;;;;;8.00;61.72;100963.69;4988111;28;20122;-77
2022/03/15 06:45:23;;;;;;;20.33;7.80;;;;;;;8.00;61.75;100969.81;4988738;28;20085;-78
2022/03/15 06:47:50;;;;;;;16.90;7.68;;;;;;;8.01;61.84;100968.88;4999376;28;20512;-78
2022/03/15 06:50:18;;;;;;;16.60;9.05;;;;;;;8.02;61.63;100969.72;5001546;28;20042;-78
2022/03/15 06:52:46;;;;;;;25.65;11.50;;;;;;;8.02;61.85;100967.09;4984561;28;20125;-78
2022/03/15 06:55:13;;;;;;;26.27;12.30;;;;;;;8.02;61.94;100973.22;4995996;28;20116;-81
2022/03/15 06:57:41;;;;;;;28.38;12.35;;;;;;;8.03;62.03;100976.72;5007210;28;20684;-77
2022/03/15 07:00:10;;;;;;;26.98;13.40;;;;;;;8.03;61.99;100982.00;5009246;28;20493;-78
2022/03/15 07:02:37;;;;;;;28.60;14.10;;;;;;;8.03;62.25;100974.06;4991117;28;20049;-78
2022/03/15 07:05:04;;;;;;;26.50;13.95;;;;;;;8.03;62.34;100964.34;4965015;28;20101;-81
2022/03/15 07:07:31;;;;;;;29.08;13.30;;;;;;;8.02;62.13;100962.63;5003017;28;20046;-78
2022/03/15 07:09:58;;;;;;;20.80;9.82;;;;;;;8.03;62.42;100960.84;4999291;28;20073;-78
2022/03/15 07:12:24;;;;;;;24.23;9.38;;;;;;;8.03;62.36;100956.41;5010308;28;21973;-78
2022/03/15 07:14:51;;;;;;;16.13;7.50;;;;;;;8.04;62.33;100954.63;4986994;28;20485;-78
2022/03/15 07:17:19;;;;;;;17.80;7.50;;;;;;;8.05;62.29;100966.91;5007520;28;20516;-78
2022/03/15 07:19:46;;;;;;;16.38;7.55;;;;;;;8.07;62.70;100964.19;5007743;28;20060;-78
2022/03/15 07:22:13;;;;;;;13.35;6.68;;;;;;;7.97;62.71;100959.41;5002054;28;20049;-78
2022/03/15 07:24:39;;;;;;;17.05;7.03;;;;;;;8.00;62.63;100956.59;5004181;28;20037;-78
2022/03/15 07:27:07;;;;;;;14.85;6.50;;;;;;;8.02;62.77;100964.44;4995293;28;20070;-78
2022/03/15 07:29:34;;;;;;;19.05;7.50;;;;;;;8.07;62.68;100961.53;5001020;28;20053;-79
2022/03/15 07:32:01;;;;;;;12.32;6.35;;;;;;;8.07;62.70;100961.53;4982393;28;20052;-79
2022/03/15 07:34:28;;;;;;;13.75;7.22;;;;;;;8.09;62.73;100962.25;4985003;28;20046;-78
2022/03/15 07:36:56;;;;;;;18.13;7.32;;;;;;;8.11;62.86;100955.09;5005391;28;20042;-79
2022/03/15 07:39:23;;;;;;;19.80;8.85;;;;;;;8.11;63.18;100950.66;5004729;28;20060;-78
2022/03/15 07:41:52;;;;;;;19.17;8.85;;;;;;;8.11;63.51;100941.88;4989763;28;20496;-79
2022/03/15 07:44:20;;;;;;;20.38;7.75;;;;;;;8.12;63.32;100941.78;4985623;28;20101;-78
2022/03/15 07:46:50;;;;;;;15.57;7.97;;;;;;;8.13;63.11;100938.19;4990334;28;20053;-78
2022/03/15 07:49:18;;;;;;;20.08;9.23;;;;;;;8.15;63.33;100931.00;4984757;28;20486;-78
2022/03/15 07:51:46;;;;;;;22.25;8.18;;;;;;;8.18;63.05;100945.84;4995571;28;20537;-78
2022/03/15 07:54:14;;;;;;;19.13;8.45;;;;;;;8.18;63.28;100937.91;4987853;28;20129;-79
2022/03/15 07:56:41;;;;;;;15.77;8.20;;;;;;;8.17;63.42;100921.19;4985203;28;20108;-79
2022/03/15 07:59:09;;;;;;;18.20;8.00;;;;;;;8.20;63.48;100933.38;4972967;28;20088;-78
2022/03/15 08:01:39;;;;;;;26.48;9.77;;;;;;;8.18;63.53;100925.53;4985525;28;20060;-78
2022/03/15 08:04:06;;;;;;;20.30;8.73;;;;;;;8.18;63.76;100937.91;4991899;28;20053;-80
2022/03/15 08:06:35;;;;;;;23.27;8.80;;;;;;;8.19;63.80;100939.59;4957288;28;20440;-78
2022/03/15 08:09:03;;;;;;;18.55;8.07;;;;;;;8.19;63.67;100945.75;4975711;28;20059;-78
2022/03/15 08:11:33;;;;;;;24.52;8.70;;;;;;;8.18;63.49;100946.69;4992655;28;20045;-78
2022/03/15 08:14:00;;;;;;;17.70;8.75;;;;;;;8.20;63.88;100952.75;5002321;28;20049;-79
2022/03/15 08:16:27;;;;;;;22.10;8.65;;;;;;;8.19;63.71;100953.69;5005831;28;20401;-79
2022/03/15 08:18:54;;;;;;;21.95;8.73;;;;;;;8.19;63.85;100945.75;4991915;28;20501;-81
2022/03/15 08:21:22;;;;;;;19.65;8.55;;;;;;;8.19;63.88;100944.88;4980869;28;20046;-79
2022/03/15 08:23:49;;;;;;;18.60;7.93;;;;;;;8.19;64.27;100940.47;4975708;28;20049;-79
2022/03/15 08:26:16;;;;;;;14.30;7.32;;;;;;;8.20;63.98;100928.94;4989305;28;20116;-79
2022/03/15 08:28:45;;;;;;;19.75;8.32;;;;;;;8.20;64.07;100923.63;5017102;28;20474;-79
2022/03/15 08:31:13;;;;;;;16.17;7.82;;;;;;;8.20;63.82;100921.00;4998525;28;20057;-78
2022/03/15 08:33:39;;;;;;;17.70;8.75;;;;;;;8.20;64.22;100917.50;5010071;28;20405;-79
2022/03/15 08:36:06;;;;;;;17.88;8.15;;;;;;;8.21;63.83;100927.97;4988491;28;20049;-80
2022/03/15 08:38:34;;;;;;;15.10;7.60;;;;;;;8.21;63.62;100932.41;4998999;28;20043;-78
2022/03/15 08:41:01;;;;;;;19.02;8.23;;;;;;;8.21;63.70;100935.06;4989770;28;20042;-79
2022/03/15 08:43:30;;;;;;;20.88;8.68;;;;;;;8.23;63.63;100922.59;4975008;28;20045;-79
2022/03/15 08:45:57;;;;;;;18.02;9.13;;;;;;;8.23;63.98;100925.25;4995240;28;20053;-78
2022/03/15 08:48:24;;;;;;;26.90;9.73;;;;;;;8.25;64.25;100928.66;4993602;28;20125;-80
2022/03/15 08:50:51;;;;;;;24.10;10.10;;;;;;;8.24;64.20;100925.16;4993547;28;20492;-79
2022/03/15 08:53:19;;;;;;;18.95;10.15;;;;;;;8.26;64.55;100920.59;4983181;28;20057;-79
2022/03/15 08:55:45;;;;;;;25.08;10.07;;;;;;;8.29;64.37;100926.66;5001705;28;20046;-79
2022/03/15 08:58:13;;;;;;;17.95;9.27;;;;;;;8.29;64.17;100924.84;4983384;28;20105;-79
2022/03/15 09:00:40;;;;;;;22.65;10.02;;;;;;;8.31;64.51;100916.84;4984570;28;20042;-80
2022/03/15 09:03:07;;;;;;;24.30;10.00;;;;;;;8.34;64.53;100916.63;5003524;28;20097;-80
2022/03/15 09:05:34;;;;;;;18.70;9.40;;;;;;;8.36;64.30;100917.41;5009608;28;20038;-79
2022/03/15 09:08:04;;;;;;;21.73;10.07;;;;;;;8.38;64.71;100918.16;4986157;28;20446;-79
2022/03/15 09:10:32;;;;;;;24.80;10.75;;;;;;;8.39;64.57;100912.78;5009795;28;20045;-80
2022/03/15 09:13:00;;;;;;;21.45;10.73;;;;;;;8.40;64.71;100908.38;4975303;28;20136;-80
2022/03/15 09:15:27;;;;;;;24.38;10.68;;;;;;;8.40;64.56;100906.56;4992398;28;20392;-80
2022/03/15 09:17:56;;;;;;;21.70;11.05;;;;;;;8.38;65.29;100903.13;4995214;28;20038;-79
2022/03/15 09:20:24;;;;;;;24.92;11.43;;;;;;;8.40;65.09;100895.97;4990792;28;20104;-80
2022/03/15 09:22:56;;;;;;;23.45;10.48;;;;;;;8.38;64.90;100895.19;4968582;28;20053;-82
2022/03/15 09:25:24;;;;;;;19.17;10.00;;;;;;;8.44;64.96;100900.13;5002030;28;20049;-80
2022/03/15 09:27:50;;;;;;;24.65;11.25;;;;;;;8.46;64.73;100886.81;4966897;28;20516;-80
2022/03/15 09:30:18;;;;;;;22.58;10.20;;;;;;;8.43;64.69;100881.72;5009078;28;20120;-79
2022/03/15 09:32:45;;;;;;;24.63;10.73;;;;;;;8.45;64.46;100870.06;4980815;28;20045;-79
2022/03/15 09:35:13;;;;;;;23.65;10.23;;;;;;;8.43;64.61;100879.91;4986747;28;20053;-79
2022/03/15 09:37:41;;;;;;;26.05;11.65;;;;;;;8.47;64.41;100868.19;4988388;28;20044;-80
2022/03/15 09:40:10;;;;;;;22.23;10.50;;;;;;;8.45;64.76;100862.13;4984712;28;20057;-80
2022/03/15 09:42:37;;;;;;;22.38;10.43;;;;;;;8.48;64.62;100854.00;4974363;28;20045;-80
2022/03/15 09:45:05;;;;;;;20.77;11.93;;;;;;;8.50;64.51;100840.69;4982686;28;20125;-78
2022/03/15 09:47:34;;;;;;;25.77;11.35;;;;;;;8.52;64.62;100840.56;5023599;28;20045;-80
2022/03/15 09:50:03;;;;;;;27.05;12.73;;;;;;;8.48;64.83;100824.88;4997961;28;20048;-79
2022/03/15 09:52:31;;;;;;;22.73;10.75;;;;;;;8.48;64.18;100802.84;4982905;28;20064;-80
2022/03/15 09:54:59;;;;;;;26.95;11.77;;;;;;;8.46;64.31;100795.00;4962520;28;20054;-80
2022/03/15 09:57:33;;;;;;;21.27;8.98;;;;;;;8.42;64.07;100817.34;4988498;28;20057;-82
2022/03/15 10:00:12;;;;;;;18.73;10.32;;;;;;;8.48;64.24;100813.44;4954906;28;20042;-80
2022/03/15 10:02:48;;;;;;;20.52;9.98;;;;;;;8.53;63.82;100808.72;4915412;28;20047;-80
2022/03/15 10:05:15;;;;;;;23.95;10.50;;;;;;;8.56;63.66;100805.00;4942072;28;20050;-79
2022/03/15 10:07:42;;;;;;;21.63;9.52;;;;;;;8.56;63.61;100797.06;4967081;28;20130;-79
2022/03/15 10:10:11;;;;;;;17.73;9.93;;;;;;;8.58;63.55;100793.38;4937442;28;20057;-80
2022/03/15 10:12:38;;;;;;;20.25;10.43;;;;;;;8.60;63.53;100790.59;4925705;28;20062;-83
2022/03/15 10:15:11;;;;;;;23.52;10.05;;;;;;;8.58;63.41;100787.25;4930588;28;20136;-80
2022/03/15 10:17:47;;;;;;;25.25;11.25;;;;;;;8.67;64.72;100790.09;4950884;28;20047;-80
2022/03/15 10:20:18;;;;;;;25.33;11.48;;;;;;;8.72;64.31;100781.03;4952168;28;20046;-80
2022/03/15 10:22:57;;;;;;;20.42;9.63;;;;;;;8.63;64.08;100775.38;4959039;28;20051;-79
2022/03/15 10:25:25;;;;;;;31.10;11.63;;;;;;;8.73;63.58;100774.78;4960407;28;20527;-80
2022/03/15 10:27:57;;;;;;;29.35;10.45;;;;;;;8.67;63.67;100771.56;4972988;28;20042;-80
2022/03/15 10:30:25;;;;;;;26.05;9.98;;;;;;;8.72;63.40;100763.34;4946292;28;20043;-79
2022/03/15 10:32:53;;;;;;;18.50;9.30;;;;;;;8.72;63.87;100757.19;4980148;28;20056;-80
2022/03/15 10:35:25;;;;;;;30.25;11.20;;;;;;;8.69;63.72;100747.66;5000723;28;20045;-80
2022/03/15 10:37:54;;;;;;;27.58;10.77;;;;;;;8.67;63.65;100749.56;4970185;28;20046;-79
2022/03/15 10:40:58;;;;;;;29.38;11.13;;;;;;;8.61;63.62;100744.66;4996906;28;20042;-79
2022/03/15 10:43:27;;;;;;;;;;;;;;;8.45;64.23;100758.91;4904482;28;20133;-81
2022/03/15 10:45:57;;;;;;;22.02;8.77;;;;;;;8.60;63.65;100761.47;5020523;28;20016;-80
2022/03/15 10:48:35;;;;;;;22.48;11.45;;;;;;;8.58;63.82;100753.66;4990168;28;20045;-80
2022/03/15 10:51:06;;;;;;;25.15;9.82;;;;;;;8.61;63.63;100752.63;4955402;28;20042;-80
2022/03/15 10:53:40;;;;;;;22.25;10.18;;;;;;;8.62;63.52;100746.34;4964719;28;20160;-80
2022/03/15 10:56:14;;;;;;;;;;;;;;;8.44;64.51;100753.69;4951177;28;20084;-80
2022/03/15 10:59:36;;;;;;;28.23;11.20;;;;;;;8.60;63.82;100750.91;4922889;28;19929;-80
2022/03/15 11:02:03;;;;;;;27.15;10.80;;;;;;;8.61;64.10;100747.31;5025709;28;20037;-80
2022/03/15 11:04:30;;;;;;;23.98;11.10;;;;;;;8.63;64.76;100748.91;5006781;28;20037;-78
2022/03/15 11:06:57;;;;;;;19.52;10.45;;;;;;;8.61;64.78;100744.66;4996011;28;20046;-79
2022/03/15 11:09:41;;;;;;;27.48;11.90;;;;;;;8.62;64.91;100739.25;4970475;28;20046;-79
2022/03/15 11:12:09;;;;;;;28.15;12.15;;;;;;;8.64;64.79;100731.22;5008787;28;20070;-80
2022/03/15 11:14:54;;;;;;;22.55;11.50;;;;;;;8.62;64.86;100720.72;5006538;28;20042;-80
2022/03/15 11:17:23;;;;;;;28.50;11.07;;;;;;;8.63;65.24;100706.56;4979008;28;20046;-80
2022/03/15 11:19:57;;;;;;;24.42;11.57;;;;;;;8.62;65.53;100699.53;4979291;28;20041;-80
2022/03/15 11:22:34;;;;;;;27.23;11.60;;;;;;;8.62;65.70;100686.31;4996075;28;20044;-80
2022/03/15 11:25:09;;;;;;;22.70;10.70;;;;;;;8.61;65.38;100671.38;5008145;28;20061;-81
2022/03/15 11:27:40;;;;;;;19.13;10.55;;;;;;;8.60;65.38;100659.13;5025919;28;20450;-80
2022/03/15 11:30:11;;;;;;;25.58;12.43;;;;;;;8.65;65.42;100657.00;5010980;28;20524;-80